Squamish Triathlon 8th Annual
             Results by RACE HEADQUARTERS - Lorraine Davidson 
                                                          Sunday July 10, 2005


RELAY FINAL OVERALL Results  UPDATED JULY 11, 2005

 FINAL Place     Place/TOTAL    FINAL  BIB  NAME of               SWIM 1.5Km BIKE 40 Km  Mi. End of BIKE  RUN  10 Km  PACE
 PLACE in SEX    in DIVISION    TIME   NO. COMPETITOR             Rank Split Rank Split /Hr. Place  TIME  Rank Split /Mile CITY

    1   1/48  R  1/10 R-Male 2:11:55  413  G & T Pool & Spa         5 24:03    5 1:07:19 22.2    4 1:31:22    1 40:34  6:32 Squamish,BC
    2   2/48  R  1/24 R-Mix  2:13:31  415  Hammertime               1 21:05    4 1:07:12 22.2    2 1:28:17    8 45:15  7:17 Vancouver,BC
    3   3/48  R  2/24 R-Mix  2:14:01  428  Shake, Rattle & Roll    12 25:33    1 1:00:34 24.6    1 1:26:06   15 47:55  7:43 Garibaldi Hglds,
    4   4/48  R  2/10 R-Male 2:14:50  409  Dave\'S Disciples        8 24:38    3 1:06:17 22.5    3 1:30:55    6 43:56  7:05 Whistler,BC
    5   5/48  R  3/24 R-Mix  2:17:05  403  Abominable Snowmen       9 24:47    7 1:08:37 21.7    6 1:33:24    5 43:41  7:02 Pemberton,BC
    6   6/48  R  3/10 R-Male 2:19:11  444  Whistler Fire Rescue    14 25:45    9 1:09:59 21.3    8 1:35:43    3 43:28  7:00 Whistler,BC
    7   7/48  R  4/24 R-Mix  2:20:15  416  Kayesstee               39 33:56    2 1:04:19 23.2   11 1:38:15    2 42:01  6:46 Squamish,BC
    8   8/48  R  1/14 R-Fem  2:21:38  442  Whistler Chicks         13 25:37    8 1:09:57 21.3    7 1:35:34   12 46:04  7:25 Whistler,BC
    9   9/48  R  5/24 R-Mix  2:22:47  430  Squamish Nomads          2 21:42   11 1:10:16 21.2    5 1:31:57   22 50:50  8:11 Squamish,BC
   10  10/48  R  6/24 R-Mix  2:25:43  432  Team Banana             10 25:04   21 1:14:43 20.0   14 1:39:47   11 45:56  7:24 Surrey,BC
   11  11/48  R  4/10 R-Male 2:27:17  419  McNabb/Soave            18 27:28   17 1:13:54 20.2   17 1:41:21   10 45:56  7:24 Garibaldi Hglds,
   12  12/48  R  5/10 R-Male 2:28:33  433  Team Jag                 3 23:23   32 1:21:39 18.3   22 1:45:02    4 43:32  7:01 Brackendale,BC
   13  13/48  R  6/10 R-Male 2:31:27  414  Go Joe Go                7 24:14   31 1:19:40 18.7   19 1:43:54   13 47:34  7:40 Garibaldi Hglds,
   14  14/48  R  2/14 R-Fem  2:31:39  401  2 Jafa\'S And A Pom      4 23:29                                                 Whistler,BC
   15  15/48  R  3/14 R-Fem  2:32:03  423  Rather Be Surfing       20 27:38   10 1:10:08 21.3    9 1:37:46   25 54:18  8:45 Whistler,BC
   16  16/48  R  7/24 R-Mix  2:32:46  424  Red Rockets             19 27:35   12 1:10:20 21.2   10 1:37:55   26 54:51  8:50 Powell River,BC
   17  17/48  R  7/10 R-Male 2:33:20  443  Whistler Fire Rescue    24 28:47   23 1:15:01 19.9   18 1:43:47   18 49:33  7:59 Whistler,BC
   18  18/48  R  8/10 R-Male 2:33:43  421  Old Man And The Kid     15 26:46   19 1:14:17 20.1   16 1:41:03   24 52:41  8:29 Garibaldi Hglds,
   19  19/48  R  9/10 R-Male 2:33:52  405  Blurr                   29 31:09   27 1:18:40 19.0   28 1:49:49    7 44:04  7:06 Garibaldi Hglds,
   20  20/48  R  4/14 R-Fem  2:34:02  429  Sun Seekers             32 31:47   20 1:14:41 20.0   24 1:46:27   14 47:35  7:40 Squamish,BC
   21  21/48  R 10/10 R-Male 2:34:18  406  Bob & Doug Show         34 32:46   24 1:15:44 19.7   26 1:48:30    9 45:48  7:23 Garibaldi Hglds,
   22  22/48  R  8/24 R-Mix  2:34:41  408  Cullen Power            11 25:19   18 1:14:16 20.1   13 1:39:34   27 55:07  8:53 West Vancouver,B
   23  23/48  R  9/24 R-Mix  2:35:37  410  Dawn/Fred/Michele       31 31:16    6 1:08:18 21.8   12 1:39:34   30 56:04  9:02 North Vancouver,
   24  24/48  R  5/14 R-Fem  2:38:21  407  Chucks Crazy Girlz      28 30:57   25 1:17:15 19.3   25 1:48:12   21 50:10  8:05 Pemberton,BC
   25  25/48  R 10/24 R-Mix  2:38:23  422  Play Together Stay To   27 30:02   13 1:10:34 21.1   15 1:40:36   35 57:48  9:18 Squamish,BC
   26  26/48  R  6/14 R-Fem  2:38:30  447  Yummy Mummies           21 27:42   33 1:22:24 18.1   29 1:50:06   16 48:24  7:48 Garibaldi Hglds,
   27  27/48  R  7/14 R-Fem  2:38:52  448  Frantastics             26 30:01   28 1:18:52 18.9   27 1:48:53   19 50:00  8:03 Whistler,BC
   28  28/48  R 11/24 R-Mix  2:40:55  431  Ta                      25 29:06   22 1:14:58 19.9   20 1:44:03   33 56:52  9:09 Whistler,BC
   29  29/48  R 12/24 R-Mix  2:42:06  426  Rocket Roblin & Co.     22 27:58   26 1:17:53 19.2   23 1:45:51   31 56:16  9:04 Garibaldi Hglds,
   30  30/48  R 13/24 R-Mix  2:42:14  436  Kayesscess              43 40:22   15 1:11:49 20.8   31 1:52:10   20 50:05  8:04 Squamish,BC
   31  31/48  R 14/24 R-Mix  2:42:27  445  Whistler Fire Rescue    17 27:27   39 1:26:36 17.2   34 1:54:03   17 48:25  7:48 Whistler,BC
   32  32/48  R 15/24 R-Mix  2:43:28  446  Y Not Tri               36 33:04   14 1:11:28 20.9   21 1:44:32   36 58:56  9:30 Delta,BC
   33  33/48  R  8/14 R-Fem  2:47:20  439  Tribaffled              23 28:45   34 1:22:53 18.0   30 1:51:38   29 55:43  8:58 Squamish,BC
   34  34/48  R 16/24 R-Mix  2:50:59  441  Weakest Link            41 34:23   29 1:19:07 18.9   32 1:53:29   34 57:30  9:16 Garibaldi Hglds,
   35  35/48  R 17/24 R-Mix  2:53:49  435  The Survivors           35 32:58   37 1:25:14 17.5   35 1:58:12   28 55:38  8:58 Squamish,BC
   36  36/48  R 18/24 R-Mix  2:59:25  425  Reith\'S Raiders        44 41:33   38 1:26:08 17.3   39 2:07:41   23 51:45  8:20 Whistler,BC
   37  37/48  R 19/24 R-Mix  3:02:39  427  Salty Don And The Ear   40 34:20   30 1:19:13 18.8   33 1:53:33   45 69:07 11:08 Garibaldi Hglds,
   38  38/48  R  9/14 R-Fem  3:03:39  402  Abc                      6 24:14   43 1:37:38 15.3   38 2:01:52   39 61:47  9:57 Garibaldi Hglds,
   39  39/48  R 10/14 R-Fem  3:06:30  438  Tri Trio                30 31:10   40 1:29:45 16.6   37 2:00:55   42 65:36 10:34 North Vancouver,
   40  40/48  R 20/24 R-Mix  3:07:14  420  Mtn Fm                  45 44:37   16 1:13:37 20.3   36 1:58:14   44 69:01 11:07 Squamish,BC
   41  41/48  R 11/14 R-Fem  3:10:44  437  Tightens                38 33:32   42 1:36:31 15.5   41 2:10:02   38 60:42  9:46 Garibaldi Hglds,
   42  42/48  R 21/24 R-Mix  3:10:58  418  MacH Chicken            37 33:15   41 1:35:18 15.7   40 2:08:33   40 62:26 10:03 Squamish,BC
   43  43/48  R 12/14 R-Fem  3:22:09  440  Valley Girls            48 60:22   36 1:24:58 17.6   44 2:25:19   32 56:50  9:09 Squamish,BC
   44  44/48  R 22/24 R-Mix  3:22:15  412  Flying Tandem           46 48:25   35 1:23:23 17.9   42 2:11:48   46 70:27 11:21 Garibaldi Hglds,
   45  45/48  R 13/14 R-Fem  3:25:49  417  Lewis/Sunberg/Newman    42 38:24   45 1:43:44 14.4   43 2:22:07   41 63:42 10:16 Garibaldi Hglds,
   46  46/48  R 23/24 R-Mix  3:31:23  404  Beauty & The Beast      33 32:05   46 1:59:09 12.5   46 2:31:14   37 60:10  9:41 Delta,BC
   47  47/48  R 14/14 R-Fem  3:37:26  411  Fancy Pants             47 51:54   44 1:38:40 15.1   45 2:30:34   43 66:52 10:46 Squamish,BC
   48  48/48  R 24/24 R-Mix           449  Gilchrists              16 26:48                                                 North Vancouver,